createdAt,value
2018-11-28T00:00:20.757Z,13.13
2018-11-28T00:02:55.592Z,12.87
2018-11-28T00:05:30.526Z,12.97
2018-11-28T00:08:05.407Z,13.27
2018-11-28T00:10:40.203Z,12.60
2018-11-28T00:13:14.901Z,13.43
2018-11-28T00:15:49.777Z,12.87
2018-11-28T00:18:24.577Z,12.80
2018-11-28T00:20:59.335Z,12.93
2018-11-28T00:23:34.250Z,13.07
2018-11-28T00:26:08.920Z,14.23
2018-11-28T00:28:43.828Z,13.87
2018-11-28T00:31:18.546Z,13.00
2018-11-28T00:33:53.480Z,13.17
2018-11-28T00:36:28.247Z,12.70
2018-11-28T00:39:03.636Z,11.13
2018-11-28T00:41:38.431Z,13.20
2018-11-28T00:44:13.184Z,13.83
2018-11-28T00:46:48.019Z,15.20
2018-11-28T00:49:23.115Z,16.10
2018-11-28T00:51:57.890Z,16.57
2018-11-28T00:54:32.830Z,15.10
2018-11-28T00:57:07.778Z,15.60
2018-11-28T00:59:42.588Z,17.80
2018-11-28T01:02:17.335Z,15.73
2018-11-28T01:04:52.172Z,15.23
2018-11-28T01:07:26.900Z,14.80
2018-11-28T01:10:01.609Z,15.20
2018-11-28T01:12:36.368Z,13.63
2018-11-28T01:15:15.267Z,13.97
2018-11-28T01:17:49.983Z,12.87
2018-11-28T01:20:24.798Z,12.80
2018-11-28T01:23:06.144Z,14.27
2018-11-28T01:25:40.996Z,13.87
2018-11-28T01:28:15.728Z,14.17
2018-11-28T01:30:50.566Z,14.10
2018-11-28T01:33:25.398Z,15.47
2018-11-28T01:36:00.228Z,14.17
2018-11-28T01:38:34.935Z,14.00
2018-11-28T01:41:09.857Z,15.07
2018-11-28T01:43:44.644Z,14.40
2018-11-28T01:46:19.483Z,15.07
2018-11-28T01:48:54.359Z,14.70
2018-11-28T01:51:29.029Z,16.70
2018-11-28T01:54:03.918Z,13.97
2018-11-28T01:56:38.772Z,14.93
2018-11-28T01:59:13.384Z,15.07
2018-11-28T02:01:48.294Z,15.03
2018-11-28T02:04:23.033Z,16.17
2018-11-28T02:06:57.778Z,15.90
2018-11-28T02:09:32.391Z,16.43
2018-11-28T02:12:07.252Z,16.20
2018-11-28T02:14:42.171Z,15.73
2018-11-28T02:17:16.927Z,16.20
2018-11-28T02:19:51.781Z,15.50
2018-11-28T02:22:26.669Z,15.87
2018-11-28T02:25:01.502Z,15.27
2018-11-28T02:27:36.235Z,15.63
2018-11-28T02:30:12.381Z,17.10
2018-11-28T02:32:48.136Z,18.97
2018-11-28T02:35:22.750Z,16.63
2018-11-28T02:37:57.600Z,15.67
2018-11-28T02:40:32.381Z,16.43
2018-11-28T02:43:07.588Z,17.17
2018-11-28T02:45:42.387Z,18.33
2018-11-28T02:48:17.220Z,17.60
2018-11-28T02:50:52.043Z,17.47
2018-11-28T02:53:26.791Z,17.17
2018-11-28T02:56:01.702Z,17.47
2018-11-28T02:58:36.659Z,16.33
2018-11-28T03:01:11.451Z,16.67
2018-11-28T03:03:46.198Z,16.50
2018-11-28T03:06:20.918Z,16.63
2018-11-28T03:08:55.931Z,17.53
2018-11-28T03:11:30.658Z,17.30
2018-11-28T03:14:05.758Z,17.13
2018-11-28T03:16:40.584Z,17.23
2018-11-28T03:19:15.345Z,16.93
2018-11-28T03:21:50.065Z,17.13
2018-11-28T03:24:24.773Z,16.00
2018-11-28T03:26:59.505Z,17.23
2018-11-28T03:29:34.428Z,15.73
2018-11-28T03:32:09.250Z,16.80
2018-11-28T03:34:45.579Z,16.07
2018-11-28T03:37:18.956Z,17.03
2018-11-28T03:39:53.830Z,15.33
2018-11-28T03:42:28.691Z,17.17
2018-11-28T03:45:03.730Z,17.07
2018-11-28T03:47:38.458Z,17.57
2018-11-28T03:50:14.165Z,17.63
2018-11-28T03:52:48.842Z,18.23
2018-11-28T03:55:23.488Z,17.93
2018-11-28T03:57:58.330Z,17.33
2018-11-28T04:00:33.226Z,16.53
2018-11-28T04:03:08.043Z,16.47
2018-11-28T04:05:42.686Z,19.07
2018-11-28T04:08:17.683Z,18.63
2018-11-28T04:10:52.505Z,17.27
2018-11-28T04:13:27.367Z,17.43
2018-11-28T04:16:02.122Z,19.80
2018-11-28T04:18:37.006Z,20.67
2018-11-28T04:21:11.866Z,19.37
2018-11-28T04:23:46.624Z,18.87
2018-11-28T04:26:21.461Z,18.90
2018-11-28T04:28:56.421Z,17.23
2018-11-28T04:31:31.204Z,18.43
2018-11-28T04:34:06.525Z,18.70
2018-11-28T04:36:41.371Z,18.93
2018-11-28T04:39:16.102Z,17.70
2018-11-28T04:41:50.959Z,18.17
2018-11-28T04:44:25.603Z,18.33
2018-11-28T04:47:00.500Z,16.87
2018-11-28T04:49:35.438Z,17.27
2018-11-28T04:52:10.168Z,16.83
2018-11-28T04:54:44.880Z,16.93
2018-11-28T04:57:19.556Z,17.27
2018-11-28T04:59:54.400Z,18.00
2018-11-28T05:02:29.065Z,17.57
2018-11-28T05:05:03.956Z,17.83
2018-11-28T05:07:38.730Z,17.10
2018-11-28T05:10:21.422Z,16.57
2018-11-28T05:12:57.107Z,18.53
2018-11-28T05:15:33.044Z,17.40
2018-11-28T05:18:07.987Z,19.27
2018-11-28T05:20:42.880Z,17.33
2018-11-28T05:23:17.752Z,19.03
2018-11-28T05:25:52.640Z,18.53
2018-11-28T05:28:27.618Z,17.50
2018-11-28T05:31:09.151Z,16.97
2018-11-28T05:33:44.004Z,17.37
2018-11-28T05:36:18.739Z,20.63
2018-11-28T05:38:53.413Z,18.43
2018-11-28T05:41:28.143Z,18.10
2018-11-28T05:44:03.033Z,21.73
2018-11-28T05:46:37.662Z,18.57
2018-11-28T05:49:15.099Z,18.40
2018-11-28T05:51:47.533Z,18.00
2018-11-28T05:54:22.260Z,20.60
2018-11-28T05:56:57.156Z,19.37
2018-11-28T05:59:32.010Z,20.90
2018-11-28T06:02:06.809Z,17.40
2018-11-28T06:04:41.782Z,20.27
2018-11-28T06:07:16.581Z,22.40
2018-11-28T06:09:51.441Z,21.20
2018-11-28T06:12:26.419Z,17.97
2018-11-28T06:15:01.337Z,20.00
2018-11-28T06:17:36.197Z,20.30
2018-11-28T06:20:12.368Z,17.80
2018-11-28T06:22:47.232Z,17.87
2018-11-28T06:25:22.063Z,17.20
2018-11-28T06:27:56.934Z,16.97
2018-11-28T06:30:31.808Z,19.10
2018-11-28T06:33:06.729Z,19.17
2018-11-28T06:35:41.447Z,22.27
2018-11-28T06:38:16.409Z,19.50
2018-11-28T06:40:51.320Z,19.47
2018-11-28T06:43:25.908Z,21.00
2018-11-28T06:46:00.887Z,21.17
2018-11-28T06:48:35.698Z,22.10
2018-11-28T06:51:10.444Z,20.53
2018-11-28T06:53:45.211Z,20.20
2018-11-28T06:56:20.038Z,18.63
2018-11-28T06:58:54.879Z,18.87
2018-11-28T07:01:29.732Z,20.67
2018-11-28T07:04:05.260Z,21.40
2018-11-28T07:06:40.093Z,20.10
2018-11-28T07:09:15.004Z,19.73
2018-11-28T07:11:49.761Z,21.63
2018-11-28T07:14:24.575Z,18.70
2018-11-28T07:16:59.512Z,20.87
2018-11-28T07:19:34.340Z,18.63
2018-11-28T07:22:09.303Z,16.67
2018-11-28T07:24:44.066Z,17.63
2018-11-28T07:27:18.824Z,17.53
2018-11-28T07:29:53.599Z,14.63
2018-11-28T07:32:28.454Z,16.50
2018-11-28T07:35:03.409Z,14.87
2018-11-28T07:37:38.551Z,14.23
2018-11-28T07:40:16.694Z,15.57
2018-11-28T07:43:04.546Z,15.30
2018-11-28T07:45:40.923Z,15.83
2018-11-28T07:48:15.928Z,15.27
2018-11-28T07:50:50.748Z,16.17
2018-11-28T07:53:25.518Z,14.73
2018-11-28T07:56:00.311Z,16.60
2018-11-28T07:58:35.140Z,16.03
2018-11-28T08:01:09.973Z,15.33
2018-11-28T08:03:44.859Z,14.30
2018-11-28T08:06:19.593Z,15.67
2018-11-28T08:08:58.437Z,15.57
2018-11-28T08:11:33.176Z,14.90
2018-11-28T08:14:08.039Z,14.93
2018-11-28T08:16:42.735Z,14.43
2018-11-28T08:19:17.585Z,14.57
2018-11-28T08:21:52.656Z,13.17
2018-11-28T08:24:27.402Z,14.63
2018-11-28T08:27:02.205Z,15.17
2018-11-28T08:29:36.856Z,18.23
2018-11-28T08:32:12.082Z,18.43
2018-11-28T08:34:46.809Z,15.90
2018-11-28T08:37:21.602Z,17.17
2018-11-28T08:39:56.398Z,17.83
2018-11-28T08:42:31.268Z,17.57
2018-11-28T08:45:07.687Z,17.37
2018-11-28T08:47:42.722Z,16.80
2018-11-28T08:50:22.677Z,16.13
2018-11-28T08:52:57.522Z,16.33
2018-11-28T08:55:32.251Z,16.07
2018-11-28T08:58:07.207Z,15.70
2018-11-28T09:00:41.987Z,17.33
2018-11-28T09:03:16.829Z,15.07
2018-11-28T09:05:51.647Z,16.70
2018-11-28T09:08:27.713Z,15.93
2018-11-28T09:11:02.650Z,17.13
2018-11-28T09:13:37.433Z,15.83
2018-11-28T09:16:12.414Z,15.03
2018-11-28T09:18:47.257Z,15.37
2018-11-28T09:21:22.381Z,15.13
2018-11-28T09:23:57.137Z,14.90
2018-11-28T09:26:32.044Z,14.93
2018-11-28T09:29:06.891Z,14.57
2018-11-28T09:31:41.601Z,14.13
2018-11-28T09:34:16.319Z,13.87
2018-11-28T09:36:51.081Z,14.57
2018-11-28T09:39:25.813Z,15.83
2018-11-28T09:42:00.664Z,15.43
2018-11-28T09:44:35.595Z,14.47
2018-11-28T09:47:10.370Z,15.37
2018-11-28T09:49:45.224Z,14.67
2018-11-28T09:52:20.228Z,14.33
2018-11-28T09:54:55.140Z,14.37
2018-11-28T09:57:29.871Z,16.33
2018-11-28T10:00:05.863Z,17.27
2018-11-28T10:02:40.887Z,15.40
2018-11-28T10:05:18.101Z,14.13
2018-11-28T10:07:53.032Z,15.00
2018-11-28T10:10:27.719Z,14.73
2018-11-28T10:13:02.540Z,15.10
2018-11-28T10:15:37.209Z,14.67
2018-11-28T10:18:12.048Z,16.43
2018-11-28T10:20:46.961Z,16.67
2018-11-28T10:23:21.718Z,15.93
2018-11-28T10:25:56.542Z,16.40
2018-11-28T10:28:31.326Z,16.23
2018-11-28T10:31:06.502Z,16.00
2018-11-28T10:33:41.338Z,16.10
2018-11-28T10:36:16.190Z,17.83
2018-11-28T10:38:51.311Z,18.37
2018-11-28T10:41:25.981Z,17.53
2018-11-28T10:44:00.832Z,16.73
2018-11-28T10:46:35.731Z,18.13
2018-11-28T10:49:10.759Z,16.00
2018-11-28T10:51:50.329Z,16.13
2018-11-28T10:54:20.697Z,17.13
2018-11-28T10:56:55.603Z,18.20
2018-11-28T10:59:30.551Z,15.10
2018-11-28T11:02:10.902Z,17.30
2018-11-28T11:04:51.201Z,16.60
2018-11-28T11:07:31.407Z,17.83
2018-11-28T11:10:11.960Z,17.37
2018-11-28T11:12:52.172Z,18.90
2018-11-28T11:15:26.898Z,18.63
2018-11-28T11:18:02.241Z,17.27
2018-11-28T11:20:36.793Z,18.53
2018-11-28T11:23:11.950Z,17.50
2018-11-28T11:25:46.922Z,18.53
2018-11-28T11:28:22.201Z,17.80
2018-11-28T11:30:56.993Z,18.60
2018-11-28T11:33:31.979Z,17.57
2018-11-28T11:36:07.198Z,18.83
2018-11-28T11:38:42.060Z,18.87
2018-11-28T11:41:16.860Z,17.60
2018-11-28T11:43:51.757Z,16.57
2018-11-28T11:46:26.669Z,19.13
2018-11-28T11:49:01.806Z,17.23
2018-11-28T11:51:36.353Z,16.53
2018-11-28T11:54:11.193Z,17.00
2018-11-28T11:56:46.013Z,17.20
2018-11-28T11:59:20.665Z,18.00
2018-11-28T12:01:55.658Z,20.20
2018-11-28T12:04:30.617Z,17.50
2018-11-28T12:07:05.470Z,20.07
2018-11-28T12:09:40.455Z,17.47
2018-11-28T12:12:15.425Z,17.30
2018-11-28T12:14:50.098Z,18.47
2018-11-28T12:17:25.408Z,17.40
2018-11-28T12:20:00.266Z,20.13
2018-11-28T12:22:35.193Z,19.90
2018-11-28T12:25:09.952Z,18.73
2018-11-28T12:27:44.756Z,18.97
2018-11-28T12:30:19.706Z,17.83
2018-11-28T12:32:54.805Z,18.17
2018-11-28T12:35:29.667Z,15.63
2018-11-28T12:38:04.671Z,15.73
2018-11-28T12:40:39.335Z,17.87
2018-11-28T12:43:14.134Z,15.90
2018-11-28T12:45:49.987Z,16.40
2018-11-28T12:48:24.793Z,18.27
2018-11-28T12:50:59.559Z,19.10
2018-11-28T12:53:34.418Z,17.90
2018-11-28T12:56:09.326Z,16.77
2018-11-28T12:58:45.178Z,18.57
2018-11-28T13:01:19.953Z,18.03
2018-11-28T13:03:54.891Z,17.87
2018-11-28T13:06:29.864Z,18.80
2018-11-28T13:09:05.158Z,17.80
2018-11-28T13:11:39.948Z,17.77
2018-11-28T13:14:14.984Z,17.70
2018-11-28T13:16:50.082Z,18.27
2018-11-28T13:19:24.821Z,17.37
2018-11-28T13:21:59.538Z,18.60
2018-11-28T13:24:34.261Z,16.77
2018-11-28T13:27:09.079Z,17.13
2018-11-28T13:29:43.980Z,17.80
2018-11-28T13:32:18.937Z,17.50
2018-11-28T13:34:53.657Z,16.07
2018-11-28T13:37:28.595Z,16.97
2018-11-28T13:40:03.486Z,17.47
2018-11-28T13:42:38.481Z,15.90
2018-11-28T13:45:17.606Z,17.13
2018-11-28T13:47:53.434Z,17.27
2018-11-28T13:50:28.478Z,17.63
2018-11-28T13:53:06.155Z,15.67
2018-11-28T13:56:30.033Z,15.93
2018-11-28T13:58:21.075Z,17.70
2018-11-28T14:00:56.051Z,17.20
2018-11-28T14:03:31.203Z,16.47
2018-11-28T14:06:06.639Z,16.03
2018-11-28T14:08:41.577Z,16.57
2018-11-28T14:11:16.558Z,15.17
2018-11-28T14:13:51.560Z,16.40
2018-11-28T14:16:26.483Z,17.40
2018-11-28T14:19:01.329Z,16.13
2018-11-28T14:21:36.181Z,15.77
2018-11-28T14:24:11.021Z,17.30
2018-11-28T14:26:45.870Z,15.73
2018-11-28T14:29:20.771Z,17.33
2018-11-28T14:31:55.919Z,17.17
2018-11-28T14:34:30.766Z,17.50
2018-11-28T14:37:06.067Z,16.30
2018-11-28T14:39:41.037Z,16.80
2018-11-28T14:42:15.813Z,17.23
2018-11-28T14:44:50.565Z,17.63
2018-11-28T14:47:25.542Z,16.80
2018-11-28T14:50:00.326Z,13.40
2018-11-28T14:52:39.444Z,12.27
2018-11-28T14:55:18.600Z,12.27
2018-11-28T14:57:53.570Z,13.97
2018-11-28T15:00:29.380Z,12.10
2018-11-28T15:03:09.920Z,12.97
2018-11-28T15:05:55.453Z,14.03
2018-11-28T15:08:31.043Z,13.73
2018-11-28T15:11:14.386Z,13.83
2018-11-28T15:13:49.233Z,13.37
2018-11-28T15:16:23.940Z,13.20
2018-11-28T15:18:58.809Z,14.00
2018-11-28T15:21:33.683Z,13.90
2018-11-28T15:24:08.448Z,13.53
2018-11-28T15:26:43.161Z,12.67
2018-11-28T15:29:17.797Z,13.80
2018-11-28T15:31:52.657Z,12.10
2018-11-28T15:34:27.753Z,13.17
2018-11-28T15:37:02.501Z,13.87
2018-11-28T15:39:39.231Z,15.50
2018-11-28T15:42:13.874Z,14.20
2018-11-28T15:44:48.719Z,13.63
2018-11-28T15:47:23.490Z,13.80
2018-11-28T15:49:58.378Z,14.83
2018-11-28T15:52:33.107Z,14.70
2018-11-28T15:55:09.861Z,14.53
2018-11-28T15:57:44.905Z,14.00
2018-11-28T16:00:22.679Z,14.83
2018-11-28T16:02:57.593Z,14.97
2018-11-28T16:05:32.623Z,14.60
2018-11-28T16:08:08.019Z,14.70
2018-11-28T16:10:44.392Z,15.13
2018-11-28T16:13:19.672Z,14.37
2018-11-28T16:15:56.995Z,14.90
2018-11-28T16:18:31.725Z,14.20
2018-11-28T16:21:06.776Z,14.10
2018-11-28T16:23:41.774Z,14.60
2018-11-28T16:26:16.512Z,15.23
2018-11-28T16:28:51.425Z,15.10
2018-11-28T16:31:26.349Z,15.63
2018-11-28T16:34:01.220Z,15.70
2018-11-28T16:36:36.157Z,17.00
2018-11-28T16:39:11.146Z,20.90
2018-11-28T16:41:46.077Z,18.73
2018-11-28T16:44:20.766Z,17.93
2018-11-28T16:46:55.682Z,17.63
2018-11-28T16:49:30.594Z,15.67
2018-11-28T16:52:05.544Z,16.17
2018-11-28T16:54:40.379Z,16.37
2018-11-28T16:57:15.354Z,16.87
2018-11-28T16:59:50.257Z,16.47
2018-11-28T17:02:25.201Z,15.40
2018-11-28T17:05:00.243Z,15.10
2018-11-28T17:07:35.295Z,15.63
2018-11-28T17:10:21.099Z,16.47
2018-11-28T17:12:56.594Z,16.50
2018-11-28T17:15:31.340Z,18.33
2018-11-28T17:18:06.801Z,16.60
2018-11-28T17:20:42.712Z,15.70
2018-11-28T17:23:17.640Z,13.33
2018-11-28T17:25:52.504Z,14.90
2018-11-28T17:28:27.210Z,15.60
2018-11-28T17:31:02.006Z,15.30
2018-11-28T17:33:36.833Z,16.83
2018-11-28T17:36:12.736Z,16.43
2018-11-28T17:38:47.307Z,14.33
2018-11-28T17:41:22.156Z,18.10
2018-11-28T17:43:57.115Z,15.97
2018-11-28T17:46:31.908Z,15.20
2018-11-28T17:49:06.789Z,15.37
2018-11-28T17:51:41.477Z,14.10
2018-11-28T17:54:16.459Z,14.40
2018-11-28T17:56:51.372Z,15.80
2018-11-28T17:59:26.175Z,14.47
2018-11-28T18:02:01.063Z,16.20
2018-11-28T18:04:36.041Z,15.07
2018-11-28T18:07:11.098Z,17.27
2018-11-28T18:09:46.180Z,16.03
2018-11-28T18:12:21.070Z,16.63
2018-11-28T18:14:56.066Z,17.60
2018-11-28T18:17:31.025Z,16.07
2018-11-28T18:20:05.828Z,19.33
2018-11-28T18:22:40.550Z,18.57
2018-11-28T18:25:15.426Z,19.03
2018-11-28T18:27:50.433Z,17.63
2018-11-28T18:30:25.191Z,19.17
2018-11-28T18:33:00.004Z,20.03
2018-11-28T18:35:34.820Z,20.47
2018-11-28T18:38:09.722Z,17.30
2018-11-28T18:40:44.605Z,20.13
2018-11-28T18:43:19.509Z,20.20
2018-11-28T18:45:55.344Z,19.30
2018-11-28T18:48:30.242Z,18.90
2018-11-28T18:51:05.103Z,18.13
2018-11-28T18:53:39.852Z,18.87
2018-11-28T18:56:14.708Z,18.27
2018-11-28T18:58:49.443Z,16.73
2018-11-28T19:01:24.322Z,17.33
2018-11-28T19:03:59.134Z,18.17
2018-11-28T19:06:34.016Z,17.63
2018-11-28T19:09:14.143Z,16.93
2018-11-28T19:11:48.878Z,17.47
2018-11-28T19:14:23.837Z,15.97
2018-11-28T19:16:58.845Z,16.73
2018-11-28T19:19:33.755Z,18.10
2018-11-28T19:22:08.872Z,14.70
2018-11-28T19:24:44.103Z,15.60
2018-11-28T19:27:18.905Z,16.73
2018-11-28T19:29:54.498Z,17.97
2018-11-28T19:32:29.181Z,17.77
2018-11-28T19:35:04.370Z,19.17
2018-11-28T19:37:40.052Z,16.67
2018-11-28T19:40:19.687Z,17.30
2018-11-28T19:42:54.672Z,17.77
2018-11-28T19:45:29.573Z,16.60
2018-11-28T19:48:04.642Z,18.67
2018-11-28T19:50:39.726Z,17.37
2018-11-28T19:53:14.728Z,18.03
2018-11-28T19:55:49.489Z,17.20
2018-11-28T19:58:24.577Z,17.13
2018-11-28T20:00:59.517Z,18.13
2018-11-28T20:03:34.546Z,17.10
2018-11-28T20:06:09.538Z,18.40
2018-11-28T20:08:44.418Z,20.17
2018-11-28T20:11:19.190Z,18.63
2018-11-28T20:13:54.275Z,16.97
2018-11-28T20:16:29.148Z,18.40
2018-11-28T20:19:04.133Z,19.50
2018-11-28T20:21:38.985Z,18.50
2018-11-28T20:24:13.934Z,18.47
2018-11-28T20:26:49.091Z,18.07
2018-11-28T20:29:24.119Z,17.13
2018-11-28T20:31:59.094Z,17.63
2018-11-28T20:34:34.001Z,18.37
2018-11-28T20:37:08.909Z,18.53
2018-11-28T20:39:43.705Z,18.60
2018-11-28T20:42:18.670Z,19.17
2018-11-28T20:44:53.777Z,20.03
2018-11-28T20:47:28.510Z,19.53
2018-11-28T20:50:03.862Z,20.40
2018-11-28T20:52:39.126Z,18.80
2018-11-28T20:55:14.161Z,19.53
2018-11-28T20:57:49.187Z,20.30
2018-11-28T21:00:24.938Z,17.43
2018-11-28T21:02:59.962Z,20.30
2018-11-28T21:05:34.926Z,19.90
2018-11-28T21:08:10.508Z,18.17
2018-11-28T21:10:45.455Z,18.83
2018-11-28T21:13:20.314Z,18.60
2018-11-28T21:15:55.190Z,17.43
2018-11-28T21:18:30.019Z,18.93
2018-11-28T21:21:04.963Z,18.60
2018-11-28T21:23:40.195Z,19.07
2018-11-28T21:26:15.250Z,18.07
2018-11-28T21:28:50.021Z,22.97
2018-11-28T21:31:24.916Z,21.23
2018-11-28T21:33:59.734Z,21.10
2018-11-28T21:36:34.688Z,20.70
2018-11-28T21:39:10.220Z,20.47
2018-11-28T21:41:45.035Z,21.90
2018-11-28T21:44:20.171Z,23.77
2018-11-28T21:46:55.011Z,22.17
2018-11-28T21:49:29.738Z,19.53
2018-11-28T21:52:04.569Z,22.87
2018-11-28T21:54:39.314Z,24.47
2018-11-28T21:57:14.330Z,20.83
2018-11-28T21:59:49.181Z,23.73
2018-11-28T22:02:23.934Z,20.87
2018-11-28T22:04:58.682Z,20.17
2018-11-28T22:07:33.385Z,19.87
2018-11-28T22:10:17.281Z,18.80
2018-11-28T22:12:52.515Z,21.00
2018-11-28T22:15:27.404Z,18.23
2018-11-28T22:18:02.604Z,19.53
2018-11-28T22:20:37.544Z,18.97
2018-11-28T22:23:13.427Z,19.90
2018-11-28T22:25:48.413Z,19.23
2018-11-28T22:28:23.170Z,19.37
2018-11-28T22:30:58.172Z,19.30
2018-11-28T22:33:32.948Z,18.67
2018-11-28T22:36:07.700Z,20.40
2018-11-28T22:38:42.638Z,19.67
2018-11-28T22:41:17.412Z,20.43
2018-11-28T22:43:52.253Z,22.17
2018-11-28T22:46:27.176Z,23.87
2018-11-28T22:49:02.168Z,22.07
2018-11-28T22:51:36.825Z,21.43
2018-11-28T22:54:11.726Z,21.37
2018-11-28T22:56:46.441Z,20.80
2018-11-28T22:59:21.429Z,21.33
2018-11-28T23:03:05.035Z,21.80
2018-11-28T23:05:42.187Z,21.37
2018-11-28T23:08:17.978Z,20.80
2018-11-28T23:10:52.905Z,27.10
2018-11-28T23:13:27.724Z,27.07
2018-11-28T23:16:02.698Z,26.17
2018-11-28T23:18:37.587Z,22.23
2018-11-28T23:21:12.397Z,22.87
2018-11-28T23:23:47.284Z,21.43
2018-11-28T23:26:22.151Z,19.77
2018-11-28T23:28:56.952Z,18.00
2018-11-28T23:31:34.805Z,19.70
2018-11-28T23:34:09.465Z,21.90
2018-11-28T23:36:44.240Z,19.50
2018-11-28T23:39:19.037Z,19.93
2018-11-28T23:41:53.772Z,20.00
2018-11-28T23:44:28.522Z,19.30
2018-11-28T23:47:03.355Z,19.20
2018-11-28T23:49:38.267Z,19.10
2018-11-28T23:52:13.147Z,18.87
2018-11-28T23:54:47.875Z,18.70
2018-11-28T23:57:22.797Z,20.33
2018-11-28T23:59:57.652Z,21.00
